Airfield :
LOGIN :

Register | Disclaimer

   EN    FR    IT 

 










Legend :    VFR   Marginal VFR   IFR   Intensive IFR   Very Intensive IFR
Visi :
Ceiling :
>= 8 km
>= 3000ft
5 to 8 km
1000 to 3000 ft
1500m to 5 km
500 to 1000 ft
800 to 1500m
200 to 500 ft
< 800m
< 200 ft
Symbols :   Thunderstorms  Fog  Heavy snow  Heavy precipitations  Wind > 20 kt
SIGMETs :     Misc.  Thunderstorms  Icing  Turbulence  Mountain Waves  Volcanic Ashes







- Airport Elevation : 200 ft


EBBL - Klein Brogel AB

CURRENT METAR :
  • 220025Z AUTO VRB02KT 9999 BKN067/// 17/13 Q1010 BLU

EXPIRED METARs :
  • 212355Z AUTO VRB01KT 9999 BKN065/// BKN230/// 17/13 Q1010 BLU
  • 212325Z AUTO VRB01KT 9999 SCT072/// BKN240/// 17/13 Q1010 BLU
  • 212255Z AUTO 00000KT 9999 FEW073/// BKN230/// 18/12 Q1010 BLU
  • 212225Z AUTO VRB01KT 9999 SCT180/// BKN240/// 18/12 Q1010 BLU
  • 212155Z AUTO VRB01KT 9999 BKN180/// BKN250/// 19/12 Q1010 BLU

Expired Forecast.
No reported NOTAMs for that airfield.



MET'MAP, your aeronautical weather chart ! - Copyright ORBIFLY December 2007 - Disclaimer

ORBIFLY MET'MAP TEAM :

Programming & Development : Alexandra Zaïnal
Concept & Development : Baudouin d'Aumeries
Co-Development & Prog : Marc-Olivier Méhu
Technical & hardware support : Manuel Goepfert

Contact : metmap@orbifly.com




SOURCES & CREDITS :

   NOAA